sensor_id;sensor_type;location;lat;lon;timestamp;P1;durP1;ratioP1;P2;durP2;ratioP2
34928;SDS011;21133;48.048;7.724;2023-05-07T00:00:32;2.10;;;1.90;;
34928;SDS011;21133;48.048;7.724;2023-05-07T00:02:59;1.97;;;1.97;;
34928;SDS011;21133;48.048;7.724;2023-05-07T00:05:25;2.30;;;2.30;;
34928;SDS011;21133;48.048;7.724;2023-05-07T00:07:51;2.30;;;2.00;;
34928;SDS011;21133;48.048;7.724;2023-05-07T00:10:18;1.90;;;1.80;;
34928;SDS011;21133;48.048;7.724;2023-05-07T00:12:44;2.40;;;2.30;;
34928;SDS011;21133;48.048;7.724;2023-05-07T00:15:10;6.23;;;2.03;;
34928;SDS011;21133;48.048;7.724;2023-05-07T00:17:36;2.13;;;2.00;;
34928;SDS011;21133;48.048;7.724;2023-05-07T00:20:03;4.53;;;2.63;;
34928;SDS011;21133;48.048;7.724;2023-05-07T00:22:29;7.10;;;2.50;;
34928;SDS011;21133;48.048;7.724;2023-05-07T00:24:56;2.47;;;2.27;;
34928;SDS011;21133;48.048;7.724;2023-05-07T00:27:22;4.10;;;2.60;;
34928;SDS011;21133;48.048;7.724;2023-05-07T00:29:48;3.57;;;3.10;;
34928;SDS011;21133;48.048;7.724;2023-05-07T00:32:14;2.43;;;2.33;;
34928;SDS011;21133;48.048;7.724;2023-05-07T00:34:40;2.80;;;2.70;;
34928;SDS011;21133;48.048;7.724;2023-05-07T00:37:06;3.70;;;2.77;;
34928;SDS011;21133;48.048;7.724;2023-05-07T00:39:33;4.10;;;3.67;;
34928;SDS011;21133;48.048;7.724;2023-05-07T00:41:59;2.93;;;2.70;;
34928;SDS011;21133;48.048;7.724;2023-05-07T00:44:26;2.47;;;2.37;;
34928;SDS011;21133;48.048;7.724;2023-05-07T00:46:53;3.87;;;2.37;;
34928;SDS011;21133;48.048;7.724;2023-05-07T00:49:19;2.97;;;2.77;;
34928;SDS011;21133;48.048;7.724;2023-05-07T00:51:46;1.90;;;1.90;;
34928;SDS011;21133;48.048;7.724;2023-05-07T00:54:12;2.10;;;2.00;;
34928;SDS011;21133;48.048;7.724;2023-05-07T00:56:39;2.60;;;2.40;;
34928;SDS011;21133;48.048;7.724;2023-05-07T00:59:05;4.07;;;2.70;;
34928;SDS011;21133;48.048;7.724;2023-05-07T01:01:31;2.60;;;2.50;;
34928;SDS011;21133;48.048;7.724;2023-05-07T01:03:57;2.10;;;2.00;;
34928;SDS011;21133;48.048;7.724;2023-05-07T01:06:23;2.47;;;2.13;;
34928;SDS011;21133;48.048;7.724;2023-05-07T01:08:50;2.20;;;2.10;;
34928;SDS011;21133;48.048;7.724;2023-05-07T01:11:17;1.87;;;1.77;;
34928;SDS011;21133;48.048;7.724;2023-05-07T01:13:45;2.47;;;2.17;;
34928;SDS011;21133;48.048;7.724;2023-05-07T01:16:12;2.80;;;2.40;;
34928;SDS011;21133;48.048;7.724;2023-05-07T01:18:38;2.70;;;2.40;;
34928;SDS011;21133;48.048;7.724;2023-05-07T01:21:04;1.97;;;1.87;;
34928;SDS011;21133;48.048;7.724;2023-05-07T01:23:30;2.03;;;1.93;;
34928;SDS011;21133;48.048;7.724;2023-05-07T01:25:56;1.73;;;1.73;;
34928;SDS011;21133;48.048;7.724;2023-05-07T01:28:22;1.47;;;1.47;;
34928;SDS011;21133;48.048;7.724;2023-05-07T01:30:54;2.67;;;2.20;;
34928;SDS011;21133;48.048;7.724;2023-05-07T01:33:21;1.93;;;1.90;;
34928;SDS011;21133;48.048;7.724;2023-05-07T01:35:48;1.63;;;1.63;;
34928;SDS011;21133;48.048;7.724;2023-05-07T01:38:15;2.20;;;2.10;;
34928;SDS011;21133;48.048;7.724;2023-05-07T01:40:41;1.40;;;1.40;;
34928;SDS011;21133;48.048;7.724;2023-05-07T01:43:07;3.40;;;1.90;;
34928;SDS011;21133;48.048;7.724;2023-05-07T01:45:33;1.87;;;1.77;;
34928;SDS011;21133;48.048;7.724;2023-05-07T01:48:00;2.03;;;2.03;;
34928;SDS011;21133;48.048;7.724;2023-05-07T01:50:26;2.20;;;1.60;;
34928;SDS011;21133;48.048;7.724;2023-05-07T01:52:52;2.10;;;1.90;;
34928;SDS011;21133;48.048;7.724;2023-05-07T01:55:19;2.30;;;2.20;;
34928;SDS011;21133;48.048;7.724;2023-05-07T01:57:45;1.57;;;1.50;;
34928;SDS011;21133;48.048;7.724;2023-05-07T02:00:11;1.53;;;1.53;;
34928;SDS011;21133;48.048;7.724;2023-05-07T02:02:37;1.63;;;1.50;;
34928;SDS011;21133;48.048;7.724;2023-05-07T02:05:03;1.80;;;1.70;;
34928;SDS011;21133;48.048;7.724;2023-05-07T02:07:29;1.60;;;1.50;;
34928;SDS011;21133;48.048;7.724;2023-05-07T02:09:55;2.23;;;2.13;;
34928;SDS011;21133;48.048;7.724;2023-05-07T02:12:22;2.50;;;1.93;;
34928;SDS011;21133;48.048;7.724;2023-05-07T02:14:48;2.67;;;1.47;;
34928;SDS011;21133;48.048;7.724;2023-05-07T02:17:14;1.70;;;1.70;;
34928;SDS011;21133;48.048;7.724;2023-05-07T02:19:40;1.60;;;1.50;;
34928;SDS011;21133;48.048;7.724;2023-05-07T02:22:06;1.70;;;1.70;;
34928;SDS011;21133;48.048;7.724;2023-05-07T02:24:32;9.03;;;1.90;;
34928;SDS011;21133;48.048;7.724;2023-05-07T02:26:58;1.93;;;1.93;;
34928;SDS011;21133;48.048;7.724;2023-05-07T02:29:24;2.10;;;2.00;;
34928;SDS011;21133;48.048;7.724;2023-05-07T02:31:50;1.90;;;1.90;;
34928;SDS011;21133;48.048;7.724;2023-05-07T02:34:17;2.50;;;2.50;;
34928;SDS011;21133;48.048;7.724;2023-05-07T02:36:43;3.73;;;3.43;;
34928;SDS011;21133;48.048;7.724;2023-05-07T02:39:10;3.20;;;3.10;;
34928;SDS011;21133;48.048;7.724;2023-05-07T02:41:36;5.50;;;4.20;;
34928;SDS011;21133;48.048;7.724;2023-05-07T02:44:02;7.87;;;4.90;;
34928;SDS011;21133;48.048;7.724;2023-05-07T02:46:28;9.10;;;5.00;;
34928;SDS011;21133;48.048;7.724;2023-05-07T02:48:54;25.77;;;4.00;;
34928;SDS011;21133;48.048;7.724;2023-05-07T02:51:21;8.23;;;4.10;;
34928;SDS011;21133;48.048;7.724;2023-05-07T02:53:47;3.43;;;3.13;;
34928;SDS011;21133;48.048;7.724;2023-05-07T02:56:13;2.83;;;2.63;;
34928;SDS011;21133;48.048;7.724;2023-05-07T02:58:39;7.40;;;2.90;;
34928;SDS011;21133;48.048;7.724;2023-05-07T03:01:05;6.53;;;4.60;;
34928;SDS011;21133;48.048;7.724;2023-05-07T03:03:31;9.00;;;4.07;;
34928;SDS011;21133;48.048;7.724;2023-05-07T03:05:57;2.17;;;2.10;;
34928;SDS011;21133;48.048;7.724;2023-05-07T03:08:24;5.33;;;2.13;;
34928;SDS011;21133;48.048;7.724;2023-05-07T03:10:49;1.80;;;1.80;;
34928;SDS011;21133;48.048;7.724;2023-05-07T03:13:15;3.90;;;1.90;;
34928;SDS011;21133;48.048;7.724;2023-05-07T03:15:42;1.97;;;1.87;;
34928;SDS011;21133;48.048;7.724;2023-05-07T03:18:08;2.50;;;2.40;;
34928;SDS011;21133;48.048;7.724;2023-05-07T03:20:34;3.57;;;2.47;;
34928;SDS011;21133;48.048;7.724;2023-05-07T03:23:01;1.97;;;1.87;;
34928;SDS011;21133;48.048;7.724;2023-05-07T03:25:27;3.60;;;1.70;;
34928;SDS011;21133;48.048;7.724;2023-05-07T03:27:54;2.30;;;2.30;;
34928;SDS011;21133;48.048;7.724;2023-05-07T03:30:20;2.33;;;2.23;;
34928;SDS011;21133;48.048;7.724;2023-05-07T03:32:46;2.13;;;2.13;;
34928;SDS011;21133;48.048;7.724;2023-05-07T03:35:12;1.93;;;1.90;;
34928;SDS011;21133;48.048;7.724;2023-05-07T03:37:38;4.03;;;3.73;;
34928;SDS011;21133;48.048;7.724;2023-05-07T03:40:05;3.60;;;2.20;;
34928;SDS011;21133;48.048;7.724;2023-05-07T03:42:31;1.80;;;1.80;;
34928;SDS011;21133;48.048;7.724;2023-05-07T03:44:57;4.10;;;2.33;;
34928;SDS011;21133;48.048;7.724;2023-05-07T03:47:23;2.43;;;1.87;;
34928;SDS011;21133;48.048;7.724;2023-05-07T03:49:49;2.30;;;2.20;;
34928;SDS011;21133;48.048;7.724;2023-05-07T03:52:17;4.63;;;1.70;;
34928;SDS011;21133;48.048;7.724;2023-05-07T03:54:48;4.43;;;1.83;;
34928;SDS011;21133;48.048;7.724;2023-05-07T03:57:14;2.20;;;2.20;;
34928;SDS011;21133;48.048;7.724;2023-05-07T03:59:40;1.53;;;1.53;;
34928;SDS011;21133;48.048;7.724;2023-05-07T04:02:06;1.97;;;1.87;;
34928;SDS011;21133;48.048;7.724;2023-05-07T04:04:32;1.67;;;1.67;;
34928;SDS011;21133;48.048;7.724;2023-05-07T04:06:58;3.47;;;1.70;;
34928;SDS011;21133;48.048;7.724;2023-05-07T04:09:25;2.00;;;2.00;;
34928;SDS011;21133;48.048;7.724;2023-05-07T04:11:51;2.83;;;1.43;;
34928;SDS011;21133;48.048;7.724;2023-05-07T04:14:17;1.40;;;1.40;;
34928;SDS011;21133;48.048;7.724;2023-05-07T04:16:43;2.07;;;2.00;;
34928;SDS011;21133;48.048;7.724;2023-05-07T04:19:09;1.77;;;1.77;;
34928;SDS011;21133;48.048;7.724;2023-05-07T04:21:35;2.83;;;1.40;;
34928;SDS011;21133;48.048;7.724;2023-05-07T04:24:02;1.70;;;1.60;;
34928;SDS011;21133;48.048;7.724;2023-05-07T04:26:28;4.43;;;1.70;;
34928;SDS011;21133;48.048;7.724;2023-05-07T04:28:55;2.30;;;2.10;;
34928;SDS011;21133;48.048;7.724;2023-05-07T04:31:22;1.60;;;1.60;;
34928;SDS011;21133;48.048;7.724;2023-05-07T04:33:48;1.60;;;1.60;;
34928;SDS011;21133;48.048;7.724;2023-05-07T04:36:15;1.60;;;1.53;;
34928;SDS011;21133;48.048;7.724;2023-05-07T04:38:41;1.80;;;1.70;;
34928;SDS011;21133;48.048;7.724;2023-05-07T04:41:08;1.90;;;1.80;;
34928;SDS011;21133;48.048;7.724;2023-05-07T04:43:34;5.93;;;2.80;;
34928;SDS011;21133;48.048;7.724;2023-05-07T04:46:00;4.63;;;2.73;;
34928;SDS011;21133;48.048;7.724;2023-05-07T04:48:26;3.70;;;3.50;;
34928;SDS011;21133;48.048;7.724;2023-05-07T04:50:53;3.30;;;3.10;;
34928;SDS011;21133;48.048;7.724;2023-05-07T04:53:19;3.00;;;2.80;;
34928;SDS011;21133;48.048;7.724;2023-05-07T04:55:46;5.27;;;2.70;;
34928;SDS011;21133;48.048;7.724;2023-05-07T04:58:12;2.80;;;2.60;;
34928;SDS011;21133;48.048;7.724;2023-05-07T05:00:38;3.40;;;3.07;;
34928;SDS011;21133;48.048;7.724;2023-05-07T05:03:05;2.40;;;2.30;;
34928;SDS011;21133;48.048;7.724;2023-05-07T05:05:32;2.30;;;2.30;;
34928;SDS011;21133;48.048;7.724;2023-05-07T05:07:58;2.97;;;2.77;;
34928;SDS011;21133;48.048;7.724;2023-05-07T05:10:24;2.37;;;2.30;;
34928;SDS011;21133;48.048;7.724;2023-05-07T05:12:50;6.63;;;4.30;;
34928;SDS011;21133;48.048;7.724;2023-05-07T05:15:16;2.53;;;2.47;;
34928;SDS011;21133;48.048;7.724;2023-05-07T05:17:42;1.93;;;1.93;;
34928;SDS011;21133;48.048;7.724;2023-05-07T05:20:08;2.50;;;2.40;;
34928;SDS011;21133;48.048;7.724;2023-05-07T05:22:37;4.57;;;3.03;;
34928;SDS011;21133;48.048;7.724;2023-05-07T05:25:03;4.63;;;3.17;;
34928;SDS011;21133;48.048;7.724;2023-05-07T05:27:29;2.13;;;2.13;;
34928;SDS011;21133;48.048;7.724;2023-05-07T05:29:55;2.20;;;2.10;;
34928;SDS011;21133;48.048;7.724;2023-05-07T05:32:21;2.50;;;2.50;;
34928;SDS011;21133;48.048;7.724;2023-05-07T05:34:47;3.53;;;2.10;;
34928;SDS011;21133;48.048;7.724;2023-05-07T05:37:13;2.27;;;2.27;;
34928;SDS011;21133;48.048;7.724;2023-05-07T05:39:39;2.03;;;1.93;;
34928;SDS011;21133;48.048;7.724;2023-05-07T05:42:06;2.20;;;2.10;;
34928;SDS011;21133;48.048;7.724;2023-05-07T05:44:32;2.20;;;2.10;;
34928;SDS011;21133;48.048;7.724;2023-05-07T05:46:58;2.00;;;2.00;;
34928;SDS011;21133;48.048;7.724;2023-05-07T05:49:24;2.40;;;2.30;;
34928;SDS011;21133;48.048;7.724;2023-05-07T05:51:50;3.27;;;2.90;;
34928;SDS011;21133;48.048;7.724;2023-05-07T05:54:16;2.43;;;2.43;;
34928;SDS011;21133;48.048;7.724;2023-05-07T05:56:42;1.90;;;1.80;;
34928;SDS011;21133;48.048;7.724;2023-05-07T05:59:09;3.17;;;2.03;;
34928;SDS011;21133;48.048;7.724;2023-05-07T06:01:34;2.97;;;2.87;;
34928;SDS011;21133;48.048;7.724;2023-05-07T06:04:00;3.90;;;2.40;;
34928;SDS011;21133;48.048;7.724;2023-05-07T06:06:26;2.33;;;2.23;;
34928;SDS011;21133;48.048;7.724;2023-05-07T06:08:53;3.37;;;3.20;;
34928;SDS011;21133;48.048;7.724;2023-05-07T06:11:19;2.03;;;2.03;;
34928;SDS011;21133;48.048;7.724;2023-05-07T06:13:45;2.37;;;2.37;;
34928;SDS011;21133;48.048;7.724;2023-05-07T06:16:11;2.27;;;2.20;;
34928;SDS011;21133;48.048;7.724;2023-05-07T06:18:37;3.87;;;3.40;;
34928;SDS011;21133;48.048;7.724;2023-05-07T06:21:03;7.43;;;2.87;;
34928;SDS011;21133;48.048;7.724;2023-05-07T06:23:29;3.60;;;3.40;;
34928;SDS011;21133;48.048;7.724;2023-05-07T06:25:55;4.77;;;2.40;;
34928;SDS011;21133;48.048;7.724;2023-05-07T06:28:21;2.80;;;2.70;;
34928;SDS011;21133;48.048;7.724;2023-05-07T06:30:47;2.93;;;2.93;;
34928;SDS011;21133;48.048;7.724;2023-05-07T06:33:14;4.13;;;3.27;;
34928;SDS011;21133;48.048;7.724;2023-05-07T06:35:40;3.20;;;3.20;;
34928;SDS011;21133;48.048;7.724;2023-05-07T06:38:06;2.90;;;2.80;;
34928;SDS011;21133;48.048;7.724;2023-05-07T06:40:32;3.07;;;2.97;;
34928;SDS011;21133;48.048;7.724;2023-05-07T06:42:58;7.30;;;3.23;;
34928;SDS011;21133;48.048;7.724;2023-05-07T06:45:24;4.53;;;4.10;;
34928;SDS011;21133;48.048;7.724;2023-05-07T06:47:50;4.97;;;3.97;;
34928;SDS011;21133;48.048;7.724;2023-05-07T06:50:16;6.50;;;3.27;;
34928;SDS011;21133;48.048;7.724;2023-05-07T06:52:42;3.60;;;3.40;;
34928;SDS011;21133;48.048;7.724;2023-05-07T06:55:08;4.87;;;4.33;;
34928;SDS011;21133;48.048;7.724;2023-05-07T06:57:36;4.10;;;3.80;;
34928;SDS011;21133;48.048;7.724;2023-05-07T07:00:02;3.53;;;3.43;;
34928;SDS011;21133;48.048;7.724;2023-05-07T07:02:28;4.20;;;3.90;;
34928;SDS011;21133;48.048;7.724;2023-05-07T07:04:54;4.60;;;4.20;;
34928;SDS011;21133;48.048;7.724;2023-05-07T07:07:20;5.27;;;4.20;;
34928;SDS011;21133;48.048;7.724;2023-05-07T07:09:46;4.60;;;4.30;;
34928;SDS011;21133;48.048;7.724;2023-05-07T07:12:12;4.00;;;3.80;;
34928;SDS011;21133;48.048;7.724;2023-05-07T07:14:37;4.77;;;3.57;;
34928;SDS011;21133;48.048;7.724;2023-05-07T07:17:03;3.83;;;3.67;;
34928;SDS011;21133;48.048;7.724;2023-05-07T07:19:30;3.97;;;3.53;;
34928;SDS011;21133;48.048;7.724;2023-05-07T07:21:56;3.63;;;3.43;;
34928;SDS011;21133;48.048;7.724;2023-05-07T07:24:22;4.27;;;3.90;;
34928;SDS011;21133;48.048;7.724;2023-05-07T07:26:48;3.97;;;3.77;;
34928;SDS011;21133;48.048;7.724;2023-05-07T07:29:14;3.07;;;2.97;;
34928;SDS011;21133;48.048;7.724;2023-05-07T07:31:40;4.23;;;4.03;;
34928;SDS011;21133;48.048;7.724;2023-05-07T07:34:06;3.23;;;3.13;;
34928;SDS011;21133;48.048;7.724;2023-05-07T07:36:32;3.40;;;3.20;;
34928;SDS011;21133;48.048;7.724;2023-05-07T07:38:58;5.70;;;3.10;;
34928;SDS011;21133;48.048;7.724;2023-05-07T07:41:23;4.77;;;3.60;;
34928;SDS011;21133;48.048;7.724;2023-05-07T07:43:50;5.43;;;3.60;;
34928;SDS011;21133;48.048;7.724;2023-05-07T07:46:16;3.40;;;3.20;;
34928;SDS011;21133;48.048;7.724;2023-05-07T07:48:42;4.17;;;3.97;;
34928;SDS011;21133;48.048;7.724;2023-05-07T07:51:08;3.53;;;3.30;;
34928;SDS011;21133;48.048;7.724;2023-05-07T07:53:34;3.17;;;2.97;;
34928;SDS011;21133;48.048;7.724;2023-05-07T07:56:00;3.00;;;2.90;;
34928;SDS011;21133;48.048;7.724;2023-05-07T07:58:26;3.53;;;3.33;;
34928;SDS011;21133;48.048;7.724;2023-05-07T08:00:52;3.40;;;3.30;;
34928;SDS011;21133;48.048;7.724;2023-05-07T08:03:20;6.77;;;3.97;;
34928;SDS011;21133;48.048;7.724;2023-05-07T08:05:46;2.90;;;2.80;;
34928;SDS011;21133;48.048;7.724;2023-05-07T08:08:14;3.77;;;3.57;;
34928;SDS011;21133;48.048;7.724;2023-05-07T08:10:40;3.30;;;3.03;;
34928;SDS011;21133;48.048;7.724;2023-05-07T08:13:06;3.90;;;3.70;;
34928;SDS011;21133;48.048;7.724;2023-05-07T08:15:32;3.33;;;2.97;;
34928;SDS011;21133;48.048;7.724;2023-05-07T08:17:58;3.57;;;3.30;;
34928;SDS011;21133;48.048;7.724;2023-05-07T08:20:28;2.93;;;2.83;;
34928;SDS011;21133;48.048;7.724;2023-05-07T08:22:54;3.17;;;3.07;;
34928;SDS011;21133;48.048;7.724;2023-05-07T08:25:20;2.73;;;2.73;;
34928;SDS011;21133;48.048;7.724;2023-05-07T08:27:46;3.10;;;2.90;;
34928;SDS011;21133;48.048;7.724;2023-05-07T08:30:12;3.70;;;3.17;;
34928;SDS011;21133;48.048;7.724;2023-05-07T08:32:38;4.50;;;4.30;;
34928;SDS011;21133;48.048;7.724;2023-05-07T08:35:04;5.10;;;4.90;;
34928;SDS011;21133;48.048;7.724;2023-05-07T08:37:30;3.07;;;3.00;;
34928;SDS011;21133;48.048;7.724;2023-05-07T08:39:56;3.43;;;3.40;;
34928;SDS011;21133;48.048;7.724;2023-05-07T08:42:23;4.50;;;4.20;;
34928;SDS011;21133;48.048;7.724;2023-05-07T08:44:50;5.23;;;4.60;;
34928;SDS011;21133;48.048;7.724;2023-05-07T08:47:20;7.77;;;3.70;;
34928;SDS011;21133;48.048;7.724;2023-05-07T08:49:48;4.00;;;3.77;;
34928;SDS011;21133;48.048;7.724;2023-05-07T08:52:15;3.87;;;3.80;;
34928;SDS011;21133;48.048;7.724;2023-05-07T08:54:41;4.20;;;4.00;;
34928;SDS011;21133;48.048;7.724;2023-05-07T08:57:07;4.37;;;4.17;;
34928;SDS011;21133;48.048;7.724;2023-05-07T08:59:33;7.37;;;4.00;;
34928;SDS011;21133;48.048;7.724;2023-05-07T09:01:59;3.90;;;3.90;;
34928;SDS011;21133;48.048;7.724;2023-05-07T09:04:25;5.37;;;4.87;;
34928;SDS011;21133;48.048;7.724;2023-05-07T09:06:51;5.70;;;4.70;;
34928;SDS011;21133;48.048;7.724;2023-05-07T09:09:17;23.23;;;8.03;;
34928;SDS011;21133;48.048;7.724;2023-05-07T09:11:43;5.37;;;4.87;;
34928;SDS011;21133;48.048;7.724;2023-05-07T09:14:09;8.70;;;4.70;;
34928;SDS011;21133;48.048;7.724;2023-05-07T09:16:35;4.30;;;3.90;;
34928;SDS011;21133;48.048;7.724;2023-05-07T09:19:01;4.67;;;4.40;;
34928;SDS011;21133;48.048;7.724;2023-05-07T09:21:28;5.23;;;4.80;;
34928;SDS011;21133;48.048;7.724;2023-05-07T09:23:54;5.13;;;4.77;;
34928;SDS011;21133;48.048;7.724;2023-05-07T09:26:21;6.00;;;5.60;;
34928;SDS011;21133;48.048;7.724;2023-05-07T09:28:47;3.97;;;3.77;;
34928;SDS011;21133;48.048;7.724;2023-05-07T09:31:13;4.23;;;3.93;;
34928;SDS011;21133;48.048;7.724;2023-05-07T09:33:39;4.40;;;4.10;;
34928;SDS011;21133;48.048;7.724;2023-05-07T09:36:06;3.50;;;3.40;;
34928;SDS011;21133;48.048;7.724;2023-05-07T09:38:33;4.80;;;3.33;;
34928;SDS011;21133;48.048;7.724;2023-05-07T09:41:02;4.27;;;4.10;;
34928;SDS011;21133;48.048;7.724;2023-05-07T09:43:31;3.20;;;3.00;;
34928;SDS011;21133;48.048;7.724;2023-05-07T09:45:59;4.30;;;3.90;;
34928;SDS011;21133;48.048;7.724;2023-05-07T09:48:26;4.37;;;4.17;;
34928;SDS011;21133;48.048;7.724;2023-05-07T09:50:54;3.90;;;3.80;;
34928;SDS011;21133;48.048;7.724;2023-05-07T09:53:24;3.53;;;3.33;;
34928;SDS011;21133;48.048;7.724;2023-05-07T09:55:50;3.07;;;2.87;;
34928;SDS011;21133;48.048;7.724;2023-05-07T09:58:16;3.53;;;3.17;;
34928;SDS011;21133;48.048;7.724;2023-05-07T10:00:44;3.50;;;2.67;;
34928;SDS011;21133;48.048;7.724;2023-05-07T10:03:10;2.90;;;2.70;;
34928;SDS011;21133;48.048;7.724;2023-05-07T10:05:37;4.10;;;2.17;;
34928;SDS011;21133;48.048;7.724;2023-05-07T10:08:04;2.07;;;1.93;;
34928;SDS011;21133;48.048;7.724;2023-05-07T10:10:30;1.87;;;1.87;;
34928;SDS011;21133;48.048;7.724;2023-05-07T10:12:56;5.40;;;2.10;;
34928;SDS011;21133;48.048;7.724;2023-05-07T10:15:22;1.57;;;1.57;;
34928;SDS011;21133;48.048;7.724;2023-05-07T10:17:49;1.83;;;1.63;;
34928;SDS011;21133;48.048;7.724;2023-05-07T10:20:17;2.23;;;2.10;;
34928;SDS011;21133;48.048;7.724;2023-05-07T10:22:44;2.27;;;2.27;;
34928;SDS011;21133;48.048;7.724;2023-05-07T10:25:30;3.00;;;2.80;;
34928;SDS011;21133;48.048;7.724;2023-05-07T10:27:57;2.50;;;2.30;;
34928;SDS011;21133;48.048;7.724;2023-05-07T10:32:55;9.40;;;2.87;;
34928;SDS011;21133;48.048;7.724;2023-05-07T10:35:24;2.10;;;1.90;;
34928;SDS011;21133;48.048;7.724;2023-05-07T10:37:51;2.20;;;2.20;;
34928;SDS011;21133;48.048;7.724;2023-05-07T10:40:18;2.70;;;2.40;;
34928;SDS011;21133;48.048;7.724;2023-05-07T10:42:58;2.60;;;2.50;;
34928;SDS011;21133;48.048;7.724;2023-05-07T10:45:25;2.60;;;2.60;;
34928;SDS011;21133;48.048;7.724;2023-05-07T10:48:07;2.53;;;2.43;;
34928;SDS011;21133;48.048;7.724;2023-05-07T10:50:34;3.07;;;2.97;;
34928;SDS011;21133;48.048;7.724;2023-05-07T10:55:42;8.63;;;2.87;;
34928;SDS011;21133;48.048;7.724;2023-05-07T10:58:27;3.77;;;2.93;;
34928;SDS011;21133;48.048;7.724;2023-05-07T11:01:00;5.23;;;3.70;;
34928;SDS011;21133;48.048;7.724;2023-05-07T11:03:26;5.97;;;3.80;;
34928;SDS011;21133;48.048;7.724;2023-05-07T11:11:18;5.60;;;3.23;;
34928;SDS011;21133;48.048;7.724;2023-05-07T11:13:45;3.40;;;3.30;;
34928;SDS011;21133;48.048;7.724;2023-05-07T11:19:01;7.20;;;3.67;;
34928;SDS011;21133;48.048;7.724;2023-05-07T11:21:37;4.03;;;3.43;;
34928;SDS011;21133;48.048;7.724;2023-05-07T11:24:04;9.60;;;5.87;;
34928;SDS011;21133;48.048;7.724;2023-05-07T11:26:32;3.43;;;3.23;;
34928;SDS011;21133;48.048;7.724;2023-05-07T11:29:10;9.67;;;8.80;;
34928;SDS011;21133;48.048;7.724;2023-05-07T11:31:36;3.90;;;3.80;;
34928;SDS011;21133;48.048;7.724;2023-05-07T11:34:02;12.80;;;2.73;;
34928;SDS011;21133;48.048;7.724;2023-05-07T11:36:30;3.83;;;3.60;;
34928;SDS011;21133;48.048;7.724;2023-05-07T11:38:57;2.97;;;2.87;;
34928;SDS011;21133;48.048;7.724;2023-05-07T11:41:32;3.60;;;3.43;;
34928;SDS011;21133;48.048;7.724;2023-05-07T11:43:59;4.07;;;3.80;;
34928;SDS011;21133;48.048;7.724;2023-05-07T11:46:26;3.00;;;2.80;;
34928;SDS011;21133;48.048;7.724;2023-05-07T11:48:55;3.90;;;2.77;;
34928;SDS011;21133;48.048;7.724;2023-05-07T11:51:22;3.07;;;2.97;;
34928;SDS011;21133;48.048;7.724;2023-05-07T11:53:49;3.30;;;3.10;;
34928;SDS011;21133;48.048;7.724;2023-05-07T11:56:16;2.30;;;2.30;;
34928;SDS011;21133;48.048;7.724;2023-05-07T11:58:43;2.73;;;2.63;;
34928;SDS011;21133;48.048;7.724;2023-05-07T12:01:10;6.47;;;2.70;;
34928;SDS011;21133;48.048;7.724;2023-05-07T12:03:36;3.00;;;2.80;;
34928;SDS011;21133;48.048;7.724;2023-05-07T12:06:05;3.43;;;3.33;;
34928;SDS011;21133;48.048;7.724;2023-05-07T12:08:31;2.57;;;2.17;;
34928;SDS011;21133;48.048;7.724;2023-05-07T12:10:57;3.00;;;3.00;;
34928;SDS011;21133;48.048;7.724;2023-05-07T12:13:24;2.30;;;2.30;;
34928;SDS011;21133;48.048;7.724;2023-05-07T12:15:54;2.67;;;2.67;;
34928;SDS011;21133;48.048;7.724;2023-05-07T12:18:21;2.57;;;2.37;;
34928;SDS011;21133;48.048;7.724;2023-05-07T12:20:47;4.67;;;3.30;;
34928;SDS011;21133;48.048;7.724;2023-05-07T12:23:14;3.00;;;3.00;;
34928;SDS011;21133;48.048;7.724;2023-05-07T12:25:41;3.70;;;3.60;;
34928;SDS011;21133;48.048;7.724;2023-05-07T12:28:13;2.67;;;2.57;;
34928;SDS011;21133;48.048;7.724;2023-05-07T12:30:51;5.87;;;3.20;;
34928;SDS011;21133;48.048;7.724;2023-05-07T12:33:18;3.10;;;3.00;;
34928;SDS011;21133;48.048;7.724;2023-05-07T12:35:47;3.20;;;2.90;;
34928;SDS011;21133;48.048;7.724;2023-05-07T12:38:14;2.97;;;2.70;;
34928;SDS011;21133;48.048;7.724;2023-05-07T12:40:45;4.77;;;3.37;;
34928;SDS011;21133;48.048;7.724;2023-05-07T12:43:18;3.17;;;3.07;;
34928;SDS011;21133;48.048;7.724;2023-05-07T12:45:45;3.30;;;3.20;;
34928;SDS011;21133;48.048;7.724;2023-05-07T12:48:12;3.60;;;3.40;;
34928;SDS011;21133;48.048;7.724;2023-05-07T12:50:38;4.50;;;3.07;;
34928;SDS011;21133;48.048;7.724;2023-05-07T12:53:04;3.30;;;3.20;;
34928;SDS011;21133;48.048;7.724;2023-05-07T12:55:31;4.00;;;3.70;;
34928;SDS011;21133;48.048;7.724;2023-05-07T12:57:57;8.57;;;3.20;;
34928;SDS011;21133;48.048;7.724;2023-05-07T13:00:35;3.20;;;3.00;;
34928;SDS011;21133;48.048;7.724;2023-05-07T13:03:01;3.13;;;3.03;;
34928;SDS011;21133;48.048;7.724;2023-05-07T13:05:27;7.63;;;3.60;;
34928;SDS011;21133;48.048;7.724;2023-05-07T13:07:54;2.20;;;2.20;;
34928;SDS011;21133;48.048;7.724;2023-05-07T13:10:21;1.93;;;1.87;;
34928;SDS011;21133;48.048;7.724;2023-05-07T13:12:48;3.53;;;2.50;;
34928;SDS011;21133;48.048;7.724;2023-05-07T13:15:13;1.70;;;1.60;;
34928;SDS011;21133;48.048;7.724;2023-05-07T13:17:39;0.80;;;0.70;;
34928;SDS011;21133;48.048;7.724;2023-05-07T13:20:06;0.97;;;0.97;;
34928;SDS011;21133;48.048;7.724;2023-05-07T13:22:33;0.70;;;0.70;;
34928;SDS011;21133;48.048;7.724;2023-05-07T13:24:59;0.77;;;0.77;;
34928;SDS011;21133;48.048;7.724;2023-05-07T13:27:25;0.60;;;0.60;;
34928;SDS011;21133;48.048;7.724;2023-05-07T13:29:51;0.50;;;0.50;;
34928;SDS011;21133;48.048;7.724;2023-05-07T13:32:17;0.70;;;0.70;;
34928;SDS011;21133;48.048;7.724;2023-05-07T13:34:43;1.57;;;0.50;;
34928;SDS011;21133;48.048;7.724;2023-05-07T13:37:09;0.70;;;0.70;;
34928;SDS011;21133;48.048;7.724;2023-05-07T13:39:35;1.90;;;0.67;;
34928;SDS011;21133;48.048;7.724;2023-05-07T13:42:01;1.37;;;1.27;;
34928;SDS011;21133;48.048;7.724;2023-05-07T13:44:27;0.57;;;0.57;;
34928;SDS011;21133;48.048;7.724;2023-05-07T13:46:53;1.00;;;1.00;;
34928;SDS011;21133;48.048;7.724;2023-05-07T13:49:19;1.10;;;1.10;;
34928;SDS011;21133;48.048;7.724;2023-05-07T13:51:45;1.23;;;1.20;;
34928;SDS011;21133;48.048;7.724;2023-05-07T13:54:11;1.10;;;1.10;;
34928;SDS011;21133;48.048;7.724;2023-05-07T13:56:37;1.80;;;1.33;;
34928;SDS011;21133;48.048;7.724;2023-05-07T13:59:03;0.90;;;0.90;;
34928;SDS011;21133;48.048;7.724;2023-05-07T14:01:30;1.17;;;1.17;;
34928;SDS011;21133;48.048;7.724;2023-05-07T14:03:56;1.33;;;0.90;;
34928;SDS011;21133;48.048;7.724;2023-05-07T14:06:25;1.10;;;1.10;;
34928;SDS011;21133;48.048;7.724;2023-05-07T14:08:51;1.63;;;1.60;;
34928;SDS011;21133;48.048;7.724;2023-05-07T14:11:17;1.17;;;1.07;;
34928;SDS011;21133;48.048;7.724;2023-05-07T14:13:43;1.13;;;0.80;;
34928;SDS011;21133;48.048;7.724;2023-05-07T14:16:09;0.60;;;0.60;;
34928;SDS011;21133;48.048;7.724;2023-05-07T14:18:35;0.80;;;0.80;;
34928;SDS011;21133;48.048;7.724;2023-05-07T14:21:04;0.77;;;0.77;;
34928;SDS011;21133;48.048;7.724;2023-05-07T14:23:31;0.80;;;0.80;;
34928;SDS011;21133;48.048;7.724;2023-05-07T14:25:57;0.60;;;0.60;;
34928;SDS011;21133;48.048;7.724;2023-05-07T14:28:23;1.00;;;1.00;;
34928;SDS011;21133;48.048;7.724;2023-05-07T14:30:49;2.07;;;1.13;;
34928;SDS011;21133;48.048;7.724;2023-05-07T14:33:16;0.70;;;0.70;;
34928;SDS011;21133;48.048;7.724;2023-05-07T14:35:42;0.60;;;0.60;;
34928;SDS011;21133;48.048;7.724;2023-05-07T14:38:12;0.60;;;0.60;;
34928;SDS011;21133;48.048;7.724;2023-05-07T14:40:38;0.90;;;0.90;;
34928;SDS011;21133;48.048;7.724;2023-05-07T14:43:04;0.73;;;0.73;;
34928;SDS011;21133;48.048;7.724;2023-05-07T14:45:30;1.33;;;1.10;;
34928;SDS011;21133;48.048;7.724;2023-05-07T14:47:56;0.80;;;0.80;;
34928;SDS011;21133;48.048;7.724;2023-05-07T14:50:22;0.60;;;0.60;;
34928;SDS011;21133;48.048;7.724;2023-05-07T14:52:48;2.20;;;1.00;;
34928;SDS011;21133;48.048;7.724;2023-05-07T14:55:15;0.60;;;0.60;;
34928;SDS011;21133;48.048;7.724;2023-05-07T14:57:41;0.87;;;0.70;;